Rayleigh, United Kingdom
Current Conditions -  °F | °C
As of 6:50 PM on Thursday 25 Dec 2014 (Local Time) from EGLC Reporting Station
Light Rain Light Rain  
Wind Chill: 43°   Ceiling: 3000
Heat Index: 43°   Visibility: 6mi
Dew Point: 36°   Wind: 3mph
Humidity: 76%   Direction: NA
Pressure: 30.45"   Gusts: NA
Location:  51.59°N, 0.61°E
Report Text: EGLC 251850Z AUTO VRB03KT 9999 -RA FEW014/// SCT024/// BKN030/// 06/02 Q1031 RERA
Loading
Personal Weather Stations






























Interactive Weather Map New forecast layout! Learn more

10-Day Weather Forecast

Advertisements
Track Severe Weather on mobile